sensor_id;sensor_type;location;lat;lon;timestamp;P1;durP1;ratioP1;P2;durP2;ratioP2
7485;SDS011;3784;54.098;9.998;2023-08-17T00:01:06;4.00;;;2.50;;
7485;SDS011;3784;54.098;9.998;2023-08-17T00:03:33;5.73;;;2.37;;
7485;SDS011;3784;54.098;9.998;2023-08-17T00:05:59;4.93;;;2.33;;
7485;SDS011;3784;54.098;9.998;2023-08-17T00:08:26;7.03;;;2.30;;
7485;SDS011;3784;54.098;9.998;2023-08-17T00:10:53;3.50;;;2.40;;
7485;SDS011;3784;54.098;9.998;2023-08-17T00:13:20;5.90;;;2.80;;
7485;SDS011;3784;54.098;9.998;2023-08-17T00:15:46;5.13;;;2.40;;
7485;SDS011;3784;54.098;9.998;2023-08-17T00:18:12;3.87;;;2.37;;
7485;SDS011;3784;54.098;9.998;2023-08-17T00:20:39;6.57;;;2.37;;
7485;SDS011;3784;54.098;9.998;2023-08-17T00:23:05;4.50;;;2.40;;
7485;SDS011;3784;54.098;9.998;2023-08-17T00:25:32;3.37;;;2.40;;
7485;SDS011;3784;54.098;9.998;2023-08-17T00:27:58;6.60;;;2.40;;
7485;SDS011;3784;54.098;9.998;2023-08-17T00:30:24;4.53;;;2.50;;
7485;SDS011;3784;54.098;9.998;2023-08-17T00:32:51;5.17;;;2.90;;
7485;SDS011;3784;54.098;9.998;2023-08-17T00:35:17;4.57;;;2.90;;
7485;SDS011;3784;54.098;9.998;2023-08-17T00:37:44;6.30;;;2.87;;
7485;SDS011;3784;54.098;9.998;2023-08-17T00:40:10;6.40;;;2.83;;
7485;SDS011;3784;54.098;9.998;2023-08-17T00:42:37;6.60;;;3.00;;
7485;SDS011;3784;54.098;9.998;2023-08-17T00:45:03;7.17;;;3.33;;
7485;SDS011;3784;54.098;9.998;2023-08-17T00:47:30;3.83;;;2.77;;
7485;SDS011;3784;54.098;9.998;2023-08-17T00:49:57;4.87;;;2.40;;
7485;SDS011;3784;54.098;9.998;2023-08-17T00:52:24;9.83;;;2.80;;
7485;SDS011;3784;54.098;9.998;2023-08-17T00:54:50;4.20;;;2.90;;
7485;SDS011;3784;54.098;9.998;2023-08-17T00:57:17;6.50;;;3.03;;
7485;SDS011;3784;54.098;9.998;2023-08-17T00:59:46;6.93;;;2.63;;
7485;SDS011;3784;54.098;9.998;2023-08-17T01:02:30;6.83;;;2.63;;
7485;SDS011;3784;54.098;9.998;2023-08-17T01:04:57;6.63;;;2.90;;
7485;SDS011;3784;54.098;9.998;2023-08-17T01:07:23;3.73;;;2.40;;
7485;SDS011;3784;54.098;9.998;2023-08-17T01:09:50;5.17;;;2.73;;
7485;SDS011;3784;54.098;9.998;2023-08-17T01:12:25;5.03;;;3.10;;
7485;SDS011;3784;54.098;9.998;2023-08-17T01:15:05;4.50;;;2.77;;
7485;SDS011;3784;54.098;9.998;2023-08-17T01:20:07;4.17;;;2.67;;
7485;SDS011;3784;54.098;9.998;2023-08-17T01:22:35;4.70;;;2.83;;
7485;SDS011;3784;54.098;9.998;2023-08-17T01:25:03;5.10;;;3.07;;
7485;SDS011;3784;54.098;9.998;2023-08-17T01:27:36;9.73;;;3.00;;
7485;SDS011;3784;54.098;9.998;2023-08-17T01:30:07;4.03;;;2.83;;
7485;SDS011;3784;54.098;9.998;2023-08-17T01:32:37;6.27;;;3.20;;
7485;SDS011;3784;54.098;9.998;2023-08-17T01:35:15;6.83;;;3.23;;
7485;SDS011;3784;54.098;9.998;2023-08-17T01:37:47;8.77;;;3.20;;
7485;SDS011;3784;54.098;9.998;2023-08-17T01:40:17;4.97;;;3.30;;
7485;SDS011;3784;54.098;9.998;2023-08-17T01:42:44;9.03;;;3.97;;
7485;SDS011;3784;54.098;9.998;2023-08-17T01:45:11;5.83;;;3.17;;
7485;SDS011;3784;54.098;9.998;2023-08-17T01:47:37;5.53;;;3.30;;
7485;SDS011;3784;54.098;9.998;2023-08-17T01:50:03;5.83;;;3.60;;
7485;SDS011;3784;54.098;9.998;2023-08-17T01:52:31;8.10;;;3.90;;
7485;SDS011;3784;54.098;9.998;2023-08-17T01:54:57;5.43;;;3.53;;
7485;SDS011;3784;54.098;9.998;2023-08-17T01:57:24;5.17;;;3.30;;
7485;SDS011;3784;54.098;9.998;2023-08-17T01:59:51;5.97;;;3.50;;
7485;SDS011;3784;54.098;9.998;2023-08-17T02:02:17;3.90;;;3.30;;
7485;SDS011;3784;54.098;9.998;2023-08-17T02:04:44;5.63;;;3.40;;
7485;SDS011;3784;54.098;9.998;2023-08-17T02:07:10;6.87;;;3.93;;
7485;SDS011;3784;54.098;9.998;2023-08-17T02:09:36;6.57;;;3.67;;
7485;SDS011;3784;54.098;9.998;2023-08-17T02:12:03;8.23;;;3.80;;
7485;SDS011;3784;54.098;9.998;2023-08-17T02:14:29;7.03;;;3.93;;
7485;SDS011;3784;54.098;9.998;2023-08-17T02:16:56;5.97;;;3.43;;
7485;SDS011;3784;54.098;9.998;2023-08-17T02:19:22;9.80;;;3.90;;
7485;SDS011;3784;54.098;9.998;2023-08-17T02:21:48;7.57;;;3.63;;
7485;SDS011;3784;54.098;9.998;2023-08-17T02:24:15;9.23;;;4.13;;
7485;SDS011;3784;54.098;9.998;2023-08-17T02:26:41;6.57;;;3.60;;
7485;SDS011;3784;54.098;9.998;2023-08-17T02:29:07;6.50;;;4.00;;
7485;SDS011;3784;54.098;9.998;2023-08-17T02:31:34;5.83;;;3.80;;
7485;SDS011;3784;54.098;9.998;2023-08-17T02:34:00;7.00;;;3.53;;
7485;SDS011;3784;54.098;9.998;2023-08-17T02:36:31;4.97;;;3.60;;
7485;SDS011;3784;54.098;9.998;2023-08-17T02:38:59;7.70;;;3.90;;
7485;SDS011;3784;54.098;9.998;2023-08-17T02:41:25;7.77;;;3.90;;
7485;SDS011;3784;54.098;9.998;2023-08-17T02:43:51;5.87;;;3.90;;
7485;SDS011;3784;54.098;9.998;2023-08-17T02:46:18;8.50;;;3.93;;
7485;SDS011;3784;54.098;9.998;2023-08-17T02:48:44;5.77;;;4.00;;
7485;SDS011;3784;54.098;9.998;2023-08-17T02:51:11;7.67;;;4.30;;
7485;SDS011;3784;54.098;9.998;2023-08-17T02:53:37;7.90;;;4.20;;
7485;SDS011;3784;54.098;9.998;2023-08-17T02:56:04;7.07;;;4.47;;
7485;SDS011;3784;54.098;9.998;2023-08-17T02:58:30;8.30;;;4.47;;
7485;SDS011;3784;54.098;9.998;2023-08-17T03:00:57;4.87;;;4.20;;
7485;SDS011;3784;54.098;9.998;2023-08-17T03:03:23;8.70;;;4.80;;
7485;SDS011;3784;54.098;9.998;2023-08-17T03:05:50;7.40;;;4.27;;
7485;SDS011;3784;54.098;9.998;2023-08-17T03:08:16;7.17;;;4.13;;
7485;SDS011;3784;54.098;9.998;2023-08-17T03:10:42;8.83;;;4.73;;
7485;SDS011;3784;54.098;9.998;2023-08-17T03:13:09;6.77;;;4.33;;
7485;SDS011;3784;54.098;9.998;2023-08-17T03:15:35;4.73;;;3.83;;
7485;SDS011;3784;54.098;9.998;2023-08-17T03:18:06;7.17;;;4.27;;
7485;SDS011;3784;54.098;9.998;2023-08-17T03:20:32;6.70;;;4.40;;
7485;SDS011;3784;54.098;9.998;2023-08-17T03:22:59;6.97;;;3.87;;
7485;SDS011;3784;54.098;9.998;2023-08-17T03:25:25;5.23;;;3.83;;
7485;SDS011;3784;54.098;9.998;2023-08-17T03:27:51;7.10;;;3.80;;
7485;SDS011;3784;54.098;9.998;2023-08-17T03:30:18;7.70;;;3.87;;
7485;SDS011;3784;54.098;9.998;2023-08-17T03:32:44;6.20;;;3.77;;
7485;SDS011;3784;54.098;9.998;2023-08-17T03:35:11;6.23;;;3.53;;
7485;SDS011;3784;54.098;9.998;2023-08-17T03:37:38;6.23;;;3.77;;
7485;SDS011;3784;54.098;9.998;2023-08-17T03:40:05;5.27;;;3.30;;
7485;SDS011;3784;54.098;9.998;2023-08-17T03:42:32;8.90;;;4.10;;
7485;SDS011;3784;54.098;9.998;2023-08-17T03:44:59;6.77;;;3.93;;
7485;SDS011;3784;54.098;9.998;2023-08-17T03:47:26;5.03;;;3.50;;
7485;SDS011;3784;54.098;9.998;2023-08-17T03:49:53;5.73;;;3.80;;
7485;SDS011;3784;54.098;9.998;2023-08-17T03:52:19;8.83;;;3.80;;
7485;SDS011;3784;54.098;9.998;2023-08-17T03:54:46;4.10;;;3.20;;
7485;SDS011;3784;54.098;9.998;2023-08-17T03:57:12;5.07;;;3.63;;
7485;SDS011;3784;54.098;9.998;2023-08-17T03:59:38;7.53;;;3.50;;
7485;SDS011;3784;54.098;9.998;2023-08-17T04:02:05;5.80;;;3.30;;
7485;SDS011;3784;54.098;9.998;2023-08-17T04:04:32;4.67;;;3.00;;
7485;SDS011;3784;54.098;9.998;2023-08-17T04:06:58;6.17;;;3.10;;
7485;SDS011;3784;54.098;9.998;2023-08-17T04:09:24;4.97;;;3.17;;
7485;SDS011;3784;54.098;9.998;2023-08-17T04:11:51;5.67;;;3.20;;
7485;SDS011;3784;54.098;9.998;2023-08-17T04:14:17;5.87;;;3.30;;
7485;SDS011;3784;54.098;9.998;2023-08-17T04:16:45;5.27;;;3.33;;
7485;SDS011;3784;54.098;9.998;2023-08-17T04:19:11;7.67;;;3.00;;
7485;SDS011;3784;54.098;9.998;2023-08-17T04:21:38;5.07;;;2.97;;
7485;SDS011;3784;54.098;9.998;2023-08-17T04:24:04;5.67;;;2.97;;
7485;SDS011;3784;54.098;9.998;2023-08-17T04:26:31;5.57;;;2.90;;
7485;SDS011;3784;54.098;9.998;2023-08-17T04:28:57;4.37;;;2.53;;
7485;SDS011;3784;54.098;9.998;2023-08-17T04:31:24;8.57;;;3.03;;
7485;SDS011;3784;54.098;9.998;2023-08-17T04:33:51;5.60;;;2.90;;
7485;SDS011;3784;54.098;9.998;2023-08-17T04:36:18;4.50;;;2.60;;
7485;SDS011;3784;54.098;9.998;2023-08-17T04:38:44;5.17;;;2.47;;
7485;SDS011;3784;54.098;9.998;2023-08-17T04:41:10;3.63;;;2.50;;
7485;SDS011;3784;54.098;9.998;2023-08-17T04:43:37;4.10;;;3.00;;
7485;SDS011;3784;54.098;9.998;2023-08-17T04:46:03;3.63;;;2.47;;
7485;SDS011;3784;54.098;9.998;2023-08-17T04:48:30;5.23;;;2.80;;
7485;SDS011;3784;54.098;9.998;2023-08-17T04:50:56;3.80;;;2.50;;
7485;SDS011;3784;54.098;9.998;2023-08-17T04:53:23;4.27;;;2.50;;
7485;SDS011;3784;54.098;9.998;2023-08-17T04:55:49;3.57;;;2.37;;
7485;SDS011;3784;54.098;9.998;2023-08-17T04:58:15;5.00;;;2.17;;
7485;SDS011;3784;54.098;9.998;2023-08-17T05:00:42;4.13;;;2.30;;
7485;SDS011;3784;54.098;9.998;2023-08-17T05:03:08;4.10;;;2.50;;
7485;SDS011;3784;54.098;9.998;2023-08-17T05:05:49;5.23;;;2.23;;
7485;SDS011;3784;54.098;9.998;2023-08-17T05:08:15;4.57;;;2.00;;
7485;SDS011;3784;54.098;9.998;2023-08-17T05:10:41;4.53;;;2.10;;
7485;SDS011;3784;54.098;9.998;2023-08-17T05:13:08;3.40;;;2.10;;
7485;SDS011;3784;54.098;9.998;2023-08-17T05:15:34;3.30;;;2.23;;
7485;SDS011;3784;54.098;9.998;2023-08-17T05:18:01;3.47;;;2.00;;
7485;SDS011;3784;54.098;9.998;2023-08-17T05:20:27;5.33;;;2.10;;
7485;SDS011;3784;54.098;9.998;2023-08-17T05:22:53;5.23;;;2.50;;
7485;SDS011;3784;54.098;9.998;2023-08-17T05:25:20;3.90;;;2.03;;
7485;SDS011;3784;54.098;9.998;2023-08-17T05:27:46;4.60;;;2.00;;
7485;SDS011;3784;54.098;9.998;2023-08-17T05:30:15;5.83;;;2.23;;
7485;SDS011;3784;54.098;9.998;2023-08-17T05:32:41;4.83;;;1.93;;
7485;SDS011;3784;54.098;9.998;2023-08-17T05:35:08;2.43;;;1.70;;
7485;SDS011;3784;54.098;9.998;2023-08-17T05:37:34;6.33;;;1.90;;
7485;SDS011;3784;54.098;9.998;2023-08-17T05:40:01;2.47;;;1.80;;
7485;SDS011;3784;54.098;9.998;2023-08-17T05:42:27;4.03;;;1.90;;
7485;SDS011;3784;54.098;9.998;2023-08-17T05:44:53;3.90;;;2.00;;
7485;SDS011;3784;54.098;9.998;2023-08-17T05:47:20;3.00;;;1.87;;
7485;SDS011;3784;54.098;9.998;2023-08-17T05:49:46;4.77;;;2.07;;
7485;SDS011;3784;54.098;9.998;2023-08-17T05:52:13;6.27;;;2.27;;
7485;SDS011;3784;54.098;9.998;2023-08-17T05:54:39;2.97;;;2.00;;
7485;SDS011;3784;54.098;9.998;2023-08-17T05:57:06;4.97;;;2.10;;
7485;SDS011;3784;54.098;9.998;2023-08-17T05:59:33;7.03;;;4.00;;
7485;SDS011;3784;54.098;9.998;2023-08-17T06:01:59;3.93;;;2.00;;
7485;SDS011;3784;54.098;9.998;2023-08-17T06:04:26;4.50;;;2.20;;
7485;SDS011;3784;54.098;9.998;2023-08-17T06:06:52;4.30;;;1.93;;
7485;SDS011;3784;54.098;9.998;2023-08-17T06:09:18;2.63;;;1.83;;
7485;SDS011;3784;54.098;9.998;2023-08-17T06:11:45;3.77;;;2.00;;
7485;SDS011;3784;54.098;9.998;2023-08-17T06:14:11;2.83;;;2.00;;
7485;SDS011;3784;54.098;9.998;2023-08-17T06:16:38;4.60;;;2.40;;
7485;SDS011;3784;54.098;9.998;2023-08-17T06:19:08;4.03;;;2.23;;
7485;SDS011;3784;54.098;9.998;2023-08-17T06:21:35;5.53;;;2.50;;
7485;SDS011;3784;54.098;9.998;2023-08-17T06:24:01;4.27;;;2.23;;
7485;SDS011;3784;54.098;9.998;2023-08-17T06:26:28;4.80;;;2.40;;
7485;SDS011;3784;54.098;9.998;2023-08-17T06:28:54;4.60;;;2.43;;
7485;SDS011;3784;54.098;9.998;2023-08-17T06:31:20;4.70;;;1.90;;
7485;SDS011;3784;54.098;9.998;2023-08-17T06:33:47;3.67;;;2.17;;
7485;SDS011;3784;54.098;9.998;2023-08-17T06:36:13;5.80;;;2.47;;
7485;SDS011;3784;54.098;9.998;2023-08-17T06:38:42;3.63;;;2.80;;
7485;SDS011;3784;54.098;9.998;2023-08-17T06:41:08;4.23;;;2.07;;
7485;SDS011;3784;54.098;9.998;2023-08-17T06:43:35;5.27;;;2.70;;
7485;SDS011;3784;54.098;9.998;2023-08-17T06:46:01;4.83;;;2.47;;
7485;SDS011;3784;54.098;9.998;2023-08-17T06:48:28;4.87;;;2.40;;
7485;SDS011;3784;54.098;9.998;2023-08-17T06:50:54;5.37;;;2.27;;
7485;SDS011;3784;54.098;9.998;2023-08-17T06:53:21;3.40;;;2.20;;
7485;SDS011;3784;54.098;9.998;2023-08-17T06:55:47;4.90;;;2.30;;
7485;SDS011;3784;54.098;9.998;2023-08-17T06:58:14;4.93;;;2.60;;
7485;SDS011;3784;54.098;9.998;2023-08-17T07:00:40;3.43;;;2.33;;
7485;SDS011;3784;54.098;9.998;2023-08-17T07:03:07;8.83;;;2.83;;
7485;SDS011;3784;54.098;9.998;2023-08-17T07:05:33;5.83;;;2.40;;
7485;SDS011;3784;54.098;9.998;2023-08-17T07:08:00;4.13;;;2.33;;
7485;SDS011;3784;54.098;9.998;2023-08-17T07:10:27;3.17;;;2.13;;
7485;SDS011;3784;54.098;9.998;2023-08-17T07:12:54;6.73;;;2.60;;
7485;SDS011;3784;54.098;9.998;2023-08-17T07:15:20;9.80;;;3.10;;
7485;SDS011;3784;54.098;9.998;2023-08-17T07:17:47;4.23;;;2.33;;
7485;SDS011;3784;54.098;9.998;2023-08-17T07:20:13;5.63;;;2.83;;
7485;SDS011;3784;54.098;9.998;2023-08-17T07:22:42;6.03;;;2.67;;
7485;SDS011;3784;54.098;9.998;2023-08-17T07:25:09;7.37;;;2.27;;
7485;SDS011;3784;54.098;9.998;2023-08-17T07:27:35;4.33;;;2.43;;
7485;SDS011;3784;54.098;9.998;2023-08-17T07:30:02;3.70;;;2.37;;
7485;SDS011;3784;54.098;9.998;2023-08-17T07:32:29;4.73;;;1.97;;
7485;SDS011;3784;54.098;9.998;2023-08-17T07:34:55;4.93;;;2.00;;
7485;SDS011;3784;54.098;9.998;2023-08-17T07:37:21;4.40;;;2.23;;
7485;SDS011;3784;54.098;9.998;2023-08-17T07:39:48;4.43;;;2.27;;
7485;SDS011;3784;54.098;9.998;2023-08-17T07:42:14;4.23;;;2.53;;
7485;SDS011;3784;54.098;9.998;2023-08-17T07:44:41;3.73;;;2.17;;
7485;SDS011;3784;54.098;9.998;2023-08-17T07:47:08;3.53;;;2.30;;
7485;SDS011;3784;54.098;9.998;2023-08-17T07:49:34;5.27;;;2.10;;
7485;SDS011;3784;54.098;9.998;2023-08-17T07:52:00;2.83;;;2.20;;
7485;SDS011;3784;54.098;9.998;2023-08-17T07:54:27;4.00;;;2.60;;
7485;SDS011;3784;54.098;9.998;2023-08-17T07:56:53;3.77;;;2.23;;
7485;SDS011;3784;54.098;9.998;2023-08-17T07:59:20;3.37;;;2.40;;
7485;SDS011;3784;54.098;9.998;2023-08-17T08:01:46;3.90;;;2.17;;
7485;SDS011;3784;54.098;9.998;2023-08-17T08:04:13;4.93;;;2.13;;
7485;SDS011;3784;54.098;9.998;2023-08-17T08:06:39;5.47;;;2.13;;
7485;SDS011;3784;54.098;9.998;2023-08-17T08:09:05;4.60;;;2.20;;
7485;SDS011;3784;54.098;9.998;2023-08-17T08:11:32;4.77;;;2.53;;
7485;SDS011;3784;54.098;9.998;2023-08-17T08:13:59;3.97;;;2.23;;
7485;SDS011;3784;54.098;9.998;2023-08-17T08:16:26;5.87;;;2.30;;
7485;SDS011;3784;54.098;9.998;2023-08-17T08:18:52;3.70;;;2.17;;
7485;SDS011;3784;54.098;9.998;2023-08-17T08:21:19;6.67;;;2.37;;
7485;SDS011;3784;54.098;9.998;2023-08-17T08:23:45;3.37;;;2.50;;
7485;SDS011;3784;54.098;9.998;2023-08-17T08:26:12;5.90;;;2.40;;
7485;SDS011;3784;54.098;9.998;2023-08-17T08:28:39;4.83;;;2.37;;
7485;SDS011;3784;54.098;9.998;2023-08-17T08:31:05;7.40;;;2.70;;
7485;SDS011;3784;54.098;9.998;2023-08-17T08:33:32;6.27;;;2.80;;
7485;SDS011;3784;54.098;9.998;2023-08-17T08:35:58;4.53;;;2.27;;
7485;SDS011;3784;54.098;9.998;2023-08-17T08:38:25;5.40;;;2.30;;
7485;SDS011;3784;54.098;9.998;2023-08-17T08:40:51;7.87;;;2.57;;
7485;SDS011;3784;54.098;9.998;2023-08-17T08:43:17;5.33;;;2.30;;
7485;SDS011;3784;54.098;9.998;2023-08-17T08:45:44;6.40;;;2.50;;
7485;SDS011;3784;54.098;9.998;2023-08-17T08:48:11;7.33;;;2.57;;
7485;SDS011;3784;54.098;9.998;2023-08-17T08:50:39;5.27;;;2.50;;
7485;SDS011;3784;54.098;9.998;2023-08-17T08:53:15;5.80;;;2.50;;
7485;SDS011;3784;54.098;9.998;2023-08-17T08:55:57;4.43;;;2.47;;
7485;SDS011;3784;54.098;9.998;2023-08-17T08:58:24;4.53;;;2.47;;
7485;SDS011;3784;54.098;9.998;2023-08-17T09:00:51;4.93;;;2.20;;
7485;SDS011;3784;54.098;9.998;2023-08-17T09:03:18;6.93;;;2.40;;
7485;SDS011;3784;54.098;9.998;2023-08-17T09:05:47;6.20;;;2.73;;
7485;SDS011;3784;54.098;9.998;2023-08-17T09:08:15;4.30;;;2.30;;
7485;SDS011;3784;54.098;9.998;2023-08-17T09:10:43;9.63;;;3.00;;
7485;SDS011;3784;54.098;9.998;2023-08-17T09:13:09;6.27;;;2.70;;
7485;SDS011;3784;54.098;9.998;2023-08-17T09:15:36;3.57;;;2.33;;
7485;SDS011;3784;54.098;9.998;2023-08-17T09:18:03;7.83;;;3.27;;
7485;SDS011;3784;54.098;9.998;2023-08-17T09:20:42;5.30;;;2.73;;
7485;SDS011;3784;54.098;9.998;2023-08-17T09:23:14;5.80;;;3.00;;
7485;SDS011;3784;54.098;9.998;2023-08-17T09:25:46;5.83;;;3.03;;
7485;SDS011;3784;54.098;9.998;2023-08-17T09:28:13;7.70;;;3.10;;
7485;SDS011;3784;54.098;9.998;2023-08-17T09:33:22;6.73;;;3.47;;
7485;SDS011;3784;54.098;9.998;2023-08-17T09:35:50;6.73;;;3.20;;
7485;SDS011;3784;54.098;9.998;2023-08-17T09:38:17;7.57;;;4.07;;
7485;SDS011;3784;54.098;9.998;2023-08-17T09:40:44;5.43;;;3.37;;
7485;SDS011;3784;54.098;9.998;2023-08-17T09:43:12;8.13;;;3.37;;
7485;SDS011;3784;54.098;9.998;2023-08-17T09:45:40;8.00;;;3.20;;
7485;SDS011;3784;54.098;9.998;2023-08-17T09:48:10;10.17;;;4.07;;
7485;SDS011;3784;54.098;9.998;2023-08-17T09:50:36;8.37;;;3.47;;
7485;SDS011;3784;54.098;9.998;2023-08-17T09:53:05;5.47;;;3.47;;
7485;SDS011;3784;54.098;9.998;2023-08-17T09:55:31;5.20;;;3.50;;
7485;SDS011;3784;54.098;9.998;2023-08-17T09:58:00;7.70;;;3.93;;
7485;SDS011;3784;54.098;9.998;2023-08-17T10:00:27;4.93;;;3.73;;
7485;SDS011;3784;54.098;9.998;2023-08-17T10:02:53;7.43;;;3.60;;
7485;SDS011;3784;54.098;9.998;2023-08-17T10:05:22;5.90;;;3.93;;
7485;SDS011;3784;54.098;9.998;2023-08-17T10:07:53;9.17;;;4.30;;
7485;SDS011;3784;54.098;9.998;2023-08-17T10:10:22;8.43;;;4.03;;
7485;SDS011;3784;54.098;9.998;2023-08-17T10:12:59;7.30;;;4.20;;
7485;SDS011;3784;54.098;9.998;2023-08-17T10:15:33;5.30;;;4.13;;
7485;SDS011;3784;54.098;9.998;2023-08-17T10:18:17;11.50;;;4.60;;
7485;SDS011;3784;54.098;9.998;2023-08-17T10:21:13;8.37;;;4.10;;
7485;SDS011;3784;54.098;9.998;2023-08-17T10:23:39;7.57;;;4.30;;
7485;SDS011;3784;54.098;9.998;2023-08-17T10:26:08;7.00;;;4.40;;
7485;SDS011;3784;54.098;9.998;2023-08-17T10:28:35;8.10;;;4.30;;
7485;SDS011;3784;54.098;9.998;2023-08-17T10:31:01;6.73;;;4.63;;
7485;SDS011;3784;54.098;9.998;2023-08-17T10:33:28;8.90;;;4.57;;
7485;SDS011;3784;54.098;9.998;2023-08-17T10:35:55;10.27;;;4.97;;
7485;SDS011;3784;54.098;9.998;2023-08-17T10:38:22;6.37;;;5.00;;
7485;SDS011;3784;54.098;9.998;2023-08-17T10:41:06;7.63;;;4.53;;
7485;SDS011;3784;54.098;9.998;2023-08-17T10:43:52;7.33;;;4.90;;
7485;SDS011;3784;54.098;9.998;2023-08-17T10:46:36;6.90;;;4.60;;
7485;SDS011;3784;54.098;9.998;2023-08-17T10:49:04;4.83;;;4.27;;
7485;SDS011;3784;54.098;9.998;2023-08-17T10:51:33;6.87;;;4.43;;
7485;SDS011;3784;54.098;9.998;2023-08-17T10:54:03;8.40;;;4.93;;
7485;SDS011;3784;54.098;9.998;2023-08-17T10:56:30;6.53;;;4.20;;
7485;SDS011;3784;54.098;9.998;2023-08-17T10:59:00;7.13;;;4.60;;
7485;SDS011;3784;54.098;9.998;2023-08-17T11:01:35;8.97;;;4.73;;
7485;SDS011;3784;54.098;9.998;2023-08-17T11:04:09;6.30;;;4.40;;
7485;SDS011;3784;54.098;9.998;2023-08-17T11:06:37;10.30;;;4.53;;
7485;SDS011;3784;54.098;9.998;2023-08-17T11:09:07;7.60;;;4.97;;
7485;SDS011;3784;54.098;9.998;2023-08-17T11:11:34;6.97;;;5.07;;
7485;SDS011;3784;54.098;9.998;2023-08-17T11:14:00;5.60;;;4.50;;
7485;SDS011;3784;54.098;9.998;2023-08-17T11:16:26;6.47;;;4.67;;
7485;SDS011;3784;54.098;9.998;2023-08-17T11:18:53;7.53;;;4.20;;
7485;SDS011;3784;54.098;9.998;2023-08-17T11:21:21;7.23;;;4.27;;
7485;SDS011;3784;54.098;9.998;2023-08-17T11:23:49;7.03;;;4.40;;
7485;SDS011;3784;54.098;9.998;2023-08-17T11:26:16;9.83;;;4.83;;
7485;SDS011;3784;54.098;9.998;2023-08-17T11:28:43;6.20;;;4.67;;
7485;SDS011;3784;54.098;9.998;2023-08-17T11:31:11;7.67;;;4.30;;
7485;SDS011;3784;54.098;9.998;2023-08-17T11:33:39;5.60;;;4.33;;
7485;SDS011;3784;54.098;9.998;2023-08-17T11:36:07;8.87;;;4.80;;
7485;SDS011;3784;54.098;9.998;2023-08-17T11:38:41;6.47;;;4.87;;
7485;SDS011;3784;54.098;9.998;2023-08-17T11:41:08;8.00;;;5.20;;
7485;SDS011;3784;54.098;9.998;2023-08-17T11:43:36;9.10;;;5.33;;
7485;SDS011;3784;54.098;9.998;2023-08-17T11:46:03;8.73;;;5.53;;
7485;SDS011;3784;54.098;9.998;2023-08-17T11:48:30;7.87;;;4.77;;
7485;SDS011;3784;54.098;9.998;2023-08-17T11:51:02;4.43;;;3.87;;
7485;SDS011;3784;54.098;9.998;2023-08-17T11:53:32;7.67;;;4.20;;
7485;SDS011;3784;54.098;9.998;2023-08-17T11:55:59;7.50;;;4.80;;
7485;SDS011;3784;54.098;9.998;2023-08-17T11:58:42;8.47;;;4.27;;
7485;SDS011;3784;54.098;9.998;2023-08-17T12:01:10;7.23;;;4.03;;
7485;SDS011;3784;54.098;9.998;2023-08-17T12:03:37;5.77;;;3.80;;
7485;SDS011;3784;54.098;9.998;2023-08-17T12:06:06;4.23;;;3.60;;
7485;SDS011;3784;54.098;9.998;2023-08-17T12:08:33;6.17;;;3.77;;
7485;SDS011;3784;54.098;9.998;2023-08-17T12:11:00;5.73;;;3.83;;
7485;SDS011;3784;54.098;9.998;2023-08-17T12:13:33;10.17;;;4.83;;
7485;SDS011;3784;54.098;9.998;2023-08-17T12:16:00;5.50;;;3.90;;
7485;SDS011;3784;54.098;9.998;2023-08-17T12:18:27;5.53;;;3.60;;
7485;SDS011;3784;54.098;9.998;2023-08-17T12:20:54;8.10;;;4.70;;
7485;SDS011;3784;54.098;9.998;2023-08-17T12:23:21;5.30;;;4.30;;
7485;SDS011;3784;54.098;9.998;2023-08-17T12:25:52;6.87;;;4.17;;
7485;SDS011;3784;54.098;9.998;2023-08-17T12:28:22;8.10;;;4.50;;
7485;SDS011;3784;54.098;9.998;2023-08-17T12:30:59;6.33;;;5.00;;
7485;SDS011;3784;54.098;9.998;2023-08-17T12:33:27;4.90;;;4.40;;
7485;SDS011;3784;54.098;9.998;2023-08-17T12:35:54;7.77;;;4.93;;
7485;SDS011;3784;54.098;9.998;2023-08-17T12:38:21;7.37;;;4.97;;
7485;SDS011;3784;54.098;9.998;2023-08-17T12:40:49;6.33;;;4.40;;
7485;SDS011;3784;54.098;9.998;2023-08-17T12:43:16;6.73;;;4.03;;
7485;SDS011;3784;54.098;9.998;2023-08-17T12:45:42;4.77;;;4.20;;
7485;SDS011;3784;54.098;9.998;2023-08-17T12:48:08;5.10;;;4.60;;
7485;SDS011;3784;54.098;9.998;2023-08-17T12:50:35;6.37;;;5.37;;
7485;SDS011;3784;54.098;9.998;2023-08-17T12:53:08;6.60;;;4.83;;
7485;SDS011;3784;54.098;9.998;2023-08-17T12:55:34;9.47;;;5.27;;
7485;SDS011;3784;54.098;9.998;2023-08-17T12:58:01;7.63;;;5.10;;
7485;SDS011;3784;54.098;9.998;2023-08-17T13:00:27;8.23;;;5.00;;
7485;SDS011;3784;54.098;9.998;2023-08-17T13:02:54;5.60;;;4.80;;
7485;SDS011;3784;54.098;9.998;2023-08-17T13:05:20;9.60;;;4.97;;
7485;SDS011;3784;54.098;9.998;2023-08-17T13:07:47;5.47;;;4.50;;
7485;SDS011;3784;54.098;9.998;2023-08-17T13:10:13;6.40;;;4.67;;
7485;SDS011;3784;54.098;9.998;2023-08-17T13:15:07;7.03;;;4.97;;
7485;SDS011;3784;54.098;9.998;2023-08-17T13:17:34;5.87;;;5.00;;
7485;SDS011;3784;54.098;9.998;2023-08-17T13:20:00;7.83;;;4.63;;
7485;SDS011;3784;54.098;9.998;2023-08-17T13:22:27;6.23;;;3.93;;
7485;SDS011;3784;54.098;9.998;2023-08-17T13:24:54;9.50;;;5.03;;
7485;SDS011;3784;54.098;9.998;2023-08-17T13:27:20;7.33;;;4.60;;
7485;SDS011;3784;54.098;9.998;2023-08-17T13:29:47;5.47;;;4.30;;
7485;SDS011;3784;54.098;9.998;2023-08-17T13:32:13;9.13;;;4.33;;
7485;SDS011;3784;54.098;9.998;2023-08-17T13:34:39;7.97;;;4.57;;
7485;SDS011;3784;54.098;9.998;2023-08-17T13:37:06;7.23;;;5.23;;
7485;SDS011;3784;54.098;9.998;2023-08-17T13:39:32;8.30;;;4.90;;
7485;SDS011;3784;54.098;9.998;2023-08-17T13:41:59;7.63;;;4.80;;
7485;SDS011;3784;54.098;9.998;2023-08-17T13:44:25;6.00;;;4.43;;
7485;SDS011;3784;54.098;9.998;2023-08-17T13:46:51;6.20;;;4.80;;
7485;SDS011;3784;54.098;9.998;2023-08-17T13:49:18;7.80;;;5.60;;
7485;SDS011;3784;54.098;9.998;2023-08-17T13:51:44;6.43;;;5.70;;
7485;SDS011;3784;54.098;9.998;2023-08-17T13:54:11;9.47;;;5.73;;
7485;SDS011;3784;54.098;9.998;2023-08-17T13:56:37;9.43;;;5.70;;
7485;SDS011;3784;54.098;9.998;2023-08-17T13:59:03;9.17;;;5.93;;
7485;SDS011;3784;54.098;9.998;2023-08-17T14:01:30;8.03;;;5.97;;
7485;SDS011;3784;54.098;9.998;2023-08-17T14:03:56;9.73;;;6.40;;
7485;SDS011;3784;54.098;9.998;2023-08-17T14:06:23;8.87;;;5.83;;
7485;SDS011;3784;54.098;9.998;2023-08-17T14:08:49;10.03;;;5.93;;
7485;SDS011;3784;54.098;9.998;2023-08-17T14:11:15;9.53;;;6.10;;
7485;SDS011;3784;54.098;9.998;2023-08-17T14:13:42;9.23;;;5.90;;
7485;SDS011;3784;54.098;9.998;2023-08-17T14:16:08;8.17;;;5.77;;
7485;SDS011;3784;54.098;9.998;2023-08-17T14:18:35;7.60;;;6.50;;
7485;SDS011;3784;54.098;9.998;2023-08-17T14:21:01;12.60;;;6.53;;
7485;SDS011;3784;54.098;9.998;2023-08-17T14:23:27;7.40;;;6.67;;
7485;SDS011;3784;54.098;9.998;2023-08-17T14:25:54;11.07;;;7.50;;
7485;SDS011;3784;54.098;9.998;2023-08-17T14:28:20;11.30;;;6.73;;
7485;SDS011;3784;54.098;9.998;2023-08-17T14:30:47;10.47;;;6.97;;
7485;SDS011;3784;54.098;9.998;2023-08-17T14:33:17;10.90;;;7.00;;
7485;SDS011;3784;54.098;9.998;2023-08-17T14:35:44;8.57;;;6.37;;
7485;SDS011;3784;54.098;9.998;2023-08-17T14:38:10;13.63;;;6.37;;
7485;SDS011;3784;54.098;9.998;2023-08-17T14:40:42;9.13;;;6.43;;
7485;SDS011;3784;54.098;9.998;2023-08-17T14:43:13;9.23;;;6.13;;
7485;SDS011;3784;54.098;9.998;2023-08-17T14:45:43;7.23;;;6.20;;
7485;SDS011;3784;54.098;9.998;2023-08-17T14:48:10;8.53;;;6.20;;
7485;SDS011;3784;54.098;9.998;2023-08-17T14:50:36;8.80;;;6.73;;
7485;SDS011;3784;54.098;9.998;2023-08-17T14:53:03;8.03;;;7.20;;
7485;SDS011;3784;54.098;9.998;2023-08-17T14:55:33;8.93;;;6.57;;
7485;SDS011;3784;54.098;9.998;2023-08-17T14:58:00;10.40;;;7.70;;
7485;SDS011;3784;54.098;9.998;2023-08-17T15:00:29;10.67;;;7.90;;
7485;SDS011;3784;54.098;9.998;2023-08-17T15:02:59;11.20;;;7.30;;
7485;SDS011;3784;54.098;9.998;2023-08-17T15:05:27;10.13;;;7.10;;
7485;SDS011;3784;54.098;9.998;2023-08-17T15:07:54;9.37;;;7.10;;
7485;SDS011;3784;54.098;9.998;2023-08-17T15:10:21;12.57;;;9.00;;
7485;SDS011;3784;54.098;9.998;2023-08-17T15:12:47;10.77;;;7.90;;
7485;SDS011;3784;54.098;9.998;2023-08-17T15:15:13;13.67;;;8.37;;
7485;SDS011;3784;54.098;9.998;2023-08-17T15:17:46;12.73;;;8.53;;
7485;SDS011;3784;54.098;9.998;2023-08-17T15:20:12;12.77;;;8.27;;
7485;SDS011;3784;54.098;9.998;2023-08-17T15:22:39;15.00;;;9.23;;
7485;SDS011;3784;54.098;9.998;2023-08-17T15:25:05;14.70;;;10.20;;